createdAt,value
2022-10-18T00:00:24.600Z,17.77
2022-10-18T00:02:52.079Z,17.71
2022-10-18T00:05:19.625Z,17.70
2022-10-18T00:07:47.098Z,17.66
2022-10-18T00:10:14.690Z,17.71
2022-10-18T00:12:42.222Z,17.62
2022-10-18T00:15:11.766Z,17.62
2022-10-18T00:17:40.771Z,17.66
2022-10-18T00:20:09.189Z,17.66
2022-10-18T00:22:37.973Z,17.72
2022-10-18T00:25:07.065Z,17.84
2022-10-18T00:27:35.231Z,17.85
2022-10-18T00:30:03.075Z,17.88
2022-10-18T00:32:30.742Z,17.92
2022-10-18T00:34:59.760Z,17.88
2022-10-18T00:37:27.266Z,17.86
2022-10-18T00:39:54.808Z,17.81
2022-10-18T00:42:33.455Z,17.88
2022-10-18T00:45:16.792Z,17.88
2022-10-18T00:47:46.801Z,17.80
2022-10-18T00:50:15.690Z,17.85
2022-10-18T00:52:46.761Z,17.91
2022-10-18T00:55:14.786Z,17.86
2022-10-18T00:57:44.208Z,17.80
2022-10-18T01:00:13.632Z,17.84
2022-10-18T01:02:44.537Z,17.88
2022-10-18T01:05:13.524Z,17.84
2022-10-18T01:08:18.500Z,17.86
2022-10-18T01:10:52.489Z,17.87
2022-10-18T01:13:39.093Z,17.90
2022-10-18T01:16:18.778Z,17.91
2022-10-18T01:18:52.305Z,17.90
2022-10-18T01:21:30.052Z,17.91
2022-10-18T01:24:40.114Z,17.88
2022-10-18T01:27:26.915Z,17.81
2022-10-18T01:30:11.491Z,17.83
2022-10-18T01:32:43.964Z,17.92
2022-10-18T01:35:18.195Z,17.87
2022-10-18T01:37:48.420Z,17.82
2022-10-18T01:40:20.340Z,17.85
2022-10-18T01:42:49.948Z,17.72
2022-10-18T01:45:19.940Z,17.73
2022-10-18T01:47:49.410Z,17.77
2022-10-18T01:50:16.885Z,17.78
2022-10-18T01:52:50.483Z,17.85
2022-10-18T01:55:19.312Z,17.92
2022-10-18T01:57:57.654Z,17.82
2022-10-18T02:00:32.485Z,17.85
2022-10-18T02:03:07.759Z,17.79
2022-10-18T02:05:45.252Z,17.73
2022-10-18T02:08:23.772Z,17.76
2022-10-18T02:10:56.718Z,17.79
2022-10-18T02:13:28.172Z,17.75
2022-10-18T02:16:00.079Z,17.69
2022-10-18T02:18:34.789Z,17.71
2022-10-18T02:21:04.614Z,17.69
2022-10-18T02:23:33.023Z,17.73
2022-10-18T02:26:00.695Z,17.71
2022-10-18T02:28:28.530Z,17.60
2022-10-18T02:31:04.816Z,17.67
2022-10-18T02:33:40.392Z,17.67
2022-10-18T02:36:16.546Z,17.66
2022-10-18T02:38:46.922Z,17.64
2022-10-18T02:41:23.535Z,17.65
2022-10-18T02:43:51.079Z,17.62
2022-10-18T02:46:18.809Z,17.63
2022-10-18T02:48:47.668Z,17.68
2022-10-18T02:51:15.228Z,17.66
2022-10-18T02:53:42.762Z,17.68
2022-10-18T02:56:10.503Z,17.71
2022-10-18T02:58:38.010Z,17.72
2022-10-18T03:01:05.724Z,17.69
2022-10-18T03:03:33.281Z,17.56
2022-10-18T03:06:02.159Z,17.51
2022-10-18T03:08:29.656Z,17.59
2022-10-18T03:10:57.207Z,17.61
2022-10-18T03:13:24.790Z,17.61
2022-10-18T03:15:52.299Z,17.60
2022-10-18T03:18:19.802Z,17.61
2022-10-18T03:20:47.549Z,17.54
2022-10-18T03:23:16.409Z,17.57
2022-10-18T03:25:45.705Z,17.53
2022-10-18T03:28:14.150Z,17.50
2022-10-18T03:30:41.686Z,17.56
2022-10-18T03:33:09.156Z,17.58
2022-10-18T03:35:36.690Z,17.56
2022-10-18T03:38:04.312Z,17.56
2022-10-18T03:40:33.211Z,17.57
2022-10-18T03:43:00.694Z,17.49
2022-10-18T03:45:31.203Z,17.53
2022-10-18T03:47:59.217Z,17.58
2022-10-18T03:50:26.717Z,17.59
2022-10-18T03:52:54.612Z,17.60
2022-10-18T03:55:22.418Z,17.62
2022-10-18T03:57:51.232Z,17.61
2022-10-18T04:00:18.786Z,17.56
2022-10-18T04:02:46.344Z,17.59
2022-10-18T04:05:14.101Z,17.53
2022-10-18T04:07:41.730Z,17.59
2022-10-18T04:10:09.598Z,17.53
2022-10-18T04:12:37.162Z,17.59
2022-10-18T04:15:07.082Z,17.57
2022-10-18T04:17:35.143Z,17.60
2022-10-18T04:20:02.985Z,17.55
2022-10-18T04:22:30.656Z,17.52
2022-10-18T04:24:58.114Z,17.59
2022-10-18T04:27:25.664Z,17.64
2022-10-18T04:29:55.336Z,17.66
2022-10-18T04:32:24.267Z,17.66
2022-10-18T04:34:51.738Z,17.60
2022-10-18T04:37:19.391Z,17.49
2022-10-18T04:39:51.213Z,17.53
2022-10-18T04:42:24.756Z,17.61
2022-10-18T04:44:52.306Z,17.61
2022-10-18T04:47:21.189Z,17.65
2022-10-18T04:49:50.047Z,17.69
2022-10-18T04:52:17.635Z,17.68
2022-10-18T04:54:45.154Z,17.72
2022-10-18T04:57:12.681Z,17.70
2022-10-18T04:59:40.179Z,17.69
2022-10-18T05:02:07.728Z,17.70
2022-10-18T05:04:35.296Z,17.61
2022-10-18T05:07:05.853Z,17.66
2022-10-18T05:09:33.402Z,17.69
2022-10-18T05:12:00.869Z,17.69
2022-10-18T05:14:28.330Z,17.69
2022-10-18T05:16:55.791Z,17.70
2022-10-18T05:19:23.270Z,17.69
2022-10-18T05:21:50.788Z,17.70
2022-10-18T05:24:21.094Z,17.72
2022-10-18T05:26:50.477Z,17.75
2022-10-18T05:29:18.062Z,17.71
2022-10-18T05:31:45.669Z,17.78
2022-10-18T05:34:13.195Z,17.70
2022-10-18T05:36:40.884Z,17.64
2022-10-18T05:39:08.363Z,17.66
2022-10-18T05:41:37.339Z,17.68
2022-10-18T05:44:05.667Z,17.67
2022-10-18T05:46:33.496Z,17.68
2022-10-18T05:49:00.993Z,17.72
2022-10-18T05:51:28.510Z,17.59
2022-10-18T05:53:55.987Z,17.59
2022-10-18T05:56:23.462Z,17.63
2022-10-18T05:58:53.148Z,17.69
2022-10-18T06:01:20.774Z,17.65
2022-10-18T06:03:48.464Z,17.63
2022-10-18T06:06:16.762Z,17.61
2022-10-18T06:08:45.012Z,17.69
2022-10-18T06:11:14.950Z,17.66
2022-10-18T06:13:42.964Z,17.63
2022-10-18T06:16:12.984Z,17.61
2022-10-18T06:18:40.782Z,17.69
2022-10-18T06:21:09.155Z,17.68
2022-10-18T06:23:36.771Z,17.65
2022-10-18T06:26:06.428Z,17.60
2022-10-18T06:28:36.248Z,17.65
2022-10-18T06:31:04.911Z,17.70
2022-10-18T06:33:34.793Z,17.68
2022-10-18T06:36:04.199Z,17.72
2022-10-18T06:38:32.194Z,17.63
2022-10-18T06:41:00.227Z,17.67
2022-10-18T06:43:28.264Z,17.63
2022-10-18T06:45:56.126Z,17.65
2022-10-18T06:48:24.424Z,17.66
2022-10-18T06:50:54.802Z,17.72
2022-10-18T06:53:22.451Z,17.71
2022-10-18T06:55:49.984Z,17.79
2022-10-18T06:58:17.700Z,17.73
2022-10-18T07:00:46.907Z,17.73
2022-10-18T07:03:14.433Z,17.74
2022-10-18T07:05:41.946Z,17.78
2022-10-18T07:08:10.844Z,17.68
2022-10-18T07:10:38.379Z,17.70
2022-10-18T07:13:30.814Z,17.66
2022-10-18T07:16:01.995Z,17.72
2022-10-18T07:18:29.457Z,17.79
2022-10-18T07:20:56.985Z,17.85
2022-10-18T07:23:25.811Z,17.79
2022-10-18T07:25:53.284Z,17.76
2022-10-18T07:28:20.837Z,17.77
2022-10-18T07:30:48.314Z,17.83
2022-10-18T07:33:15.754Z,17.73
2022-10-18T07:35:43.252Z,17.70
2022-10-18T07:38:10.783Z,17.70
2022-10-18T07:40:39.697Z,17.67
2022-10-18T07:43:11.994Z,17.66
2022-10-18T07:45:39.678Z,17.72
2022-10-18T07:48:07.706Z,17.77
2022-10-18T07:50:35.224Z,17.73
2022-10-18T07:53:02.922Z,17.82
2022-10-18T07:55:30.382Z,17.79
2022-10-18T07:58:01.126Z,17.83
2022-10-18T08:00:28.760Z,17.78
2022-10-18T08:02:57.334Z,17.87
2022-10-18T08:05:25.242Z,17.96
2022-10-18T08:07:52.729Z,18.04
2022-10-18T08:10:20.361Z,18.10
2022-10-18T08:12:47.833Z,18.07
2022-10-18T08:15:16.914Z,18.11
2022-10-18T08:17:44.664Z,18.16
2022-10-18T08:20:29.498Z,18.27
2022-10-18T08:23:00.452Z,18.17
2022-10-18T08:25:28.956Z,18.18
2022-10-18T08:27:56.598Z,18.19
2022-10-18T08:30:25.453Z,18.28
2022-10-18T08:32:53.142Z,18.26
2022-10-18T08:35:20.697Z,18.26
2022-10-18T08:37:48.437Z,18.24
2022-10-18T08:40:16.691Z,18.28
2022-10-18T08:43:01.869Z,18.27
2022-10-18T08:45:41.838Z,18.26
2022-10-18T08:48:21.671Z,18.29
2022-10-18T08:50:50.614Z,18.27
2022-10-18T08:53:25.402Z,18.33
2022-10-18T08:55:58.422Z,18.35
2022-10-18T08:58:27.623Z,18.35
2022-10-18T09:01:07.193Z,18.32
2022-10-18T09:03:52.676Z,18.31
2022-10-18T09:06:26.520Z,18.33
2022-10-18T09:09:18.373Z,18.23
2022-10-18T09:11:59.574Z,18.33
2022-10-18T09:14:57.575Z,18.36
2022-10-18T09:17:34.014Z,18.34
2022-10-18T09:20:12.959Z,18.28
2022-10-18T09:22:51.823Z,18.32
2022-10-18T09:25:22.161Z,18.40
2022-10-18T09:27:58.065Z,18.42
2022-10-18T09:30:40.456Z,18.42
2022-10-18T09:33:27.523Z,18.48
2022-10-18T09:35:58.783Z,18.52
2022-10-18T09:38:31.760Z,18.58
2022-10-18T09:41:04.308Z,18.56
2022-10-18T09:43:46.842Z,18.56
2022-10-18T09:46:15.535Z,18.59
2022-10-18T09:48:50.410Z,18.65
2022-10-18T09:51:22.161Z,18.60
2022-10-18T09:54:03.638Z,18.71
2022-10-18T09:56:39.313Z,18.81
2022-10-18T09:59:33.253Z,18.68
2022-10-18T10:02:00.805Z,18.67
2022-10-18T10:04:29.822Z,18.78
2022-10-18T10:07:00.085Z,18.79
2022-10-18T10:09:29.517Z,18.91
2022-10-18T10:11:57.602Z,19.01
2022-10-18T10:14:27.386Z,19.08
2022-10-18T10:16:57.661Z,19.19
2022-10-18T10:19:32.635Z,19.20
2022-10-18T10:22:02.828Z,19.38
2022-10-18T10:24:47.558Z,19.37
2022-10-18T10:27:20.704Z,19.29
2022-10-18T10:30:02.788Z,19.19
2022-10-18T10:32:49.386Z,19.23
2022-10-18T10:35:52.532Z,19.28
2022-10-18T10:38:25.250Z,19.38
2022-10-18T10:40:53.201Z,19.52
2022-10-18T10:43:40.541Z,19.63
2022-10-18T10:46:11.056Z,19.84
2022-10-18T10:48:48.484Z,20.01
2022-10-18T10:51:28.768Z,20.11
2022-10-18T10:54:01.371Z,20.11
2022-10-18T10:56:30.886Z,20.01
2022-10-18T10:59:07.909Z,20.01
2022-10-18T11:01:36.405Z,20.06
2022-10-18T11:04:24.213Z,20.12
2022-10-18T11:07:01.815Z,19.95
2022-10-18T11:09:49.751Z,19.84
2022-10-18T11:12:33.299Z,19.77
2022-10-18T11:15:12.781Z,19.72
2022-10-18T11:17:44.937Z,19.73
2022-10-18T11:20:24.589Z,19.89
2022-10-18T11:23:01.125Z,19.96
2022-10-18T11:26:00.952Z,20.08
2022-10-18T11:28:46.565Z,20.06
2022-10-18T11:31:21.242Z,20.05
2022-10-18T11:34:21.420Z,19.91
2022-10-18T11:37:09.670Z,19.63
2022-10-18T11:39:55.286Z,19.95
2022-10-18T11:42:32.911Z,20.12
2022-10-18T11:45:16.287Z,20.05
2022-10-18T11:47:53.572Z,19.90
2022-10-18T11:50:30.285Z,19.88
2022-10-18T11:53:05.544Z,19.96
2022-10-18T11:55:56.624Z,20.06
2022-10-18T11:58:37.651Z,19.93
2022-10-18T12:01:16.913Z,19.97
2022-10-18T12:04:03.577Z,19.94
2022-10-18T12:06:34.998Z,19.80
2022-10-18T12:09:05.170Z,19.91
2022-10-18T12:11:41.061Z,19.68
2022-10-18T12:14:23.609Z,19.99
2022-10-18T12:16:58.402Z,20.05
2022-10-18T12:19:36.207Z,20.00
2022-10-18T12:22:15.265Z,19.96
2022-10-18T12:24:43.179Z,19.93
2022-10-18T12:27:15.395Z,20.11
2022-10-18T12:29:51.076Z,20.17
2022-10-18T12:32:22.656Z,20.12
2022-10-18T12:34:53.524Z,20.19
2022-10-18T12:37:51.664Z,20.13
2022-10-18T12:40:23.510Z,20.29
2022-10-18T12:42:53.992Z,20.29
2022-10-18T12:45:27.449Z,20.36
2022-10-18T12:47:55.916Z,20.45
2022-10-18T12:50:36.077Z,20.48
2022-10-18T12:53:07.464Z,20.49
2022-10-18T12:55:37.814Z,20.48
2022-10-18T12:58:24.157Z,20.59
2022-10-18T13:01:03.088Z,20.49
2022-10-18T13:03:40.931Z,20.61
2022-10-18T13:06:08.599Z,20.60
2022-10-18T13:08:42.339Z,20.70
2022-10-18T13:11:30.312Z,20.70
2022-10-18T13:14:27.091Z,20.69
2022-10-18T13:17:00.288Z,20.69
2022-10-18T13:19:36.096Z,20.73
2022-10-18T13:22:21.921Z,20.80
2022-10-18T13:25:02.091Z,20.75
2022-10-18T13:27:39.319Z,20.83
2022-10-18T13:30:26.714Z,20.71
2022-10-18T13:33:00.909Z,20.68
2022-10-18T13:35:49.608Z,20.66
2022-10-18T13:38:41.031Z,20.61
2022-10-18T13:41:10.774Z,20.64
2022-10-18T13:44:12.803Z,20.73
2022-10-18T13:47:18.575Z,20.70
2022-10-18T13:50:02.849Z,20.77
2022-10-18T13:52:47.808Z,20.78
2022-10-18T13:55:33.870Z,20.66
2022-10-18T13:58:12.148Z,20.68
2022-10-18T14:00:54.530Z,20.72
2022-10-18T14:03:57.126Z,20.68
2022-10-18T14:06:33.621Z,20.54
2022-10-18T14:09:13.745Z,20.46
2022-10-18T14:11:54.851Z,20.38
2022-10-18T14:14:29.913Z,20.35
2022-10-18T14:17:04.405Z,20.24
2022-10-18T14:19:37.802Z,20.14
2022-10-18T14:22:12.365Z,20.02
2022-10-18T14:24:44.926Z,20.09
2022-10-18T14:27:19.722Z,20.02
2022-10-18T14:29:48.107Z,20.01
2022-10-18T14:32:25.361Z,20.11
2022-10-18T14:34:55.766Z,20.05
2022-10-18T14:37:34.442Z,20.09
2022-10-18T14:40:03.112Z,20.10
2022-10-18T14:42:30.915Z,20.11
2022-10-18T14:44:58.959Z,20.11
2022-10-18T14:47:27.864Z,20.10
2022-10-18T14:49:57.654Z,20.10
2022-10-18T14:52:32.917Z,20.14
2022-10-18T14:55:04.597Z,20.12
2022-10-18T14:57:35.575Z,20.07
2022-10-18T15:00:06.523Z,20.07
2022-10-18T15:02:38.363Z,20.05
2022-10-18T15:05:09.849Z,20.03
2022-10-18T15:07:37.762Z,20.03
2022-10-18T15:10:09.293Z,20.03
2022-10-18T15:13:04.330Z,20.00
2022-10-18T15:15:29.858Z,19.99
2022-10-18T15:17:58.422Z,19.94
2022-10-18T15:20:28.351Z,19.92
2022-10-18T15:23:23.378Z,19.89
2022-10-18T15:25:53.552Z,19.84
2022-10-18T15:28:28.955Z,19.81
2022-10-18T15:30:58.615Z,19.76
2022-10-18T15:33:27.775Z,19.68
2022-10-18T15:35:55.736Z,19.61
2022-10-18T15:38:28.030Z,19.56
2022-10-18T15:40:56.908Z,19.45
2022-10-18T15:43:40.504Z,19.40
2022-10-18T15:46:28.019Z,19.39
2022-10-18T15:49:20.165Z,19.31
2022-10-18T15:51:49.296Z,19.14
2022-10-18T15:54:19.718Z,19.13
2022-10-18T15:56:47.353Z,19.12
2022-10-18T15:59:23.934Z,19.02
2022-10-18T16:01:51.641Z,19.00
2022-10-18T16:04:23.909Z,18.87
2022-10-18T16:06:51.444Z,18.80
2022-10-18T16:09:20.979Z,18.76
2022-10-18T16:11:55.612Z,18.65
2022-10-18T16:14:24.061Z,18.63
2022-10-18T16:17:02.844Z,18.52
2022-10-18T16:19:32.934Z,18.43
2022-10-18T16:22:06.408Z,18.38
2022-10-18T16:24:34.508Z,18.27
2022-10-18T16:27:02.000Z,17.96
2022-10-18T16:29:32.003Z,17.81
2022-10-18T16:31:59.850Z,17.70
2022-10-18T16:34:27.882Z,17.54
2022-10-18T16:36:56.746Z,17.40
2022-10-18T16:39:25.086Z,17.17
2022-10-18T16:41:52.701Z,16.99
2022-10-18T16:44:20.194Z,17.02
2022-10-18T16:46:51.072Z,16.85
2022-10-18T16:49:24.125Z,16.61
2022-10-18T16:51:52.430Z,16.55
2022-10-18T16:54:21.462Z,16.59
2022-10-18T16:56:50.086Z,16.48
2022-10-18T16:59:24.012Z,16.47
2022-10-18T17:01:51.555Z,16.43
2022-10-18T17:04:19.055Z,16.33
2022-10-18T17:06:47.472Z,16.18
2022-10-18T17:09:16.141Z,16.23
2022-10-18T17:11:45.018Z,16.18
2022-10-18T17:14:12.498Z,16.11
2022-10-18T17:16:40.052Z,16.10
2022-10-18T17:19:11.270Z,16.08
2022-10-18T17:21:38.805Z,16.01
2022-10-18T17:24:06.417Z,16.03
2022-10-18T17:26:34.946Z,15.94
2022-10-18T17:29:06.265Z,15.82
2022-10-18T17:31:35.424Z,15.76
2022-10-18T17:34:02.939Z,15.85
2022-10-18T17:36:30.882Z,15.85
2022-10-18T17:38:58.805Z,15.79
2022-10-18T17:41:26.703Z,15.75
2022-10-18T17:43:54.570Z,15.76
2022-10-18T17:46:23.560Z,15.65
2022-10-18T17:48:51.077Z,15.62
2022-10-18T17:51:18.557Z,15.65
2022-10-18T17:53:46.548Z,15.59
2022-10-18T17:56:14.852Z,15.59
2022-10-18T17:58:43.466Z,15.55
2022-10-18T18:01:12.350Z,15.54
2022-10-18T18:03:42.012Z,15.45
2022-10-18T18:06:16.893Z,15.37
2022-10-18T18:08:44.710Z,15.36
2022-10-18T18:11:12.486Z,15.30
2022-10-18T18:13:40.005Z,15.26
2022-10-18T18:16:12.872Z,15.25
2022-10-18T18:18:41.909Z,15.23
2022-10-18T18:21:09.717Z,15.22
2022-10-18T18:23:37.310Z,15.14
2022-10-18T18:26:04.830Z,15.17
2022-10-18T18:28:32.367Z,15.12
2022-10-18T18:30:59.874Z,15.05
2022-10-18T18:33:27.333Z,15.05
2022-10-18T18:35:57.304Z,14.99
2022-10-18T18:38:25.474Z,15.04
2022-10-18T18:41:03.915Z,14.97
2022-10-18T18:43:31.418Z,14.96
2022-10-18T18:45:58.895Z,14.94
2022-10-18T18:48:27.047Z,14.91
2022-10-18T18:50:55.938Z,14.90
2022-10-18T18:53:27.218Z,14.96
2022-10-18T18:56:02.542Z,14.93
2022-10-18T18:58:30.027Z,14.87
2022-10-18T19:00:57.483Z,14.90
2022-10-18T19:03:24.964Z,14.91
2022-10-18T19:05:52.430Z,14.98
2022-10-18T19:08:21.228Z,14.94
2022-10-18T19:10:49.456Z,14.92
2022-10-18T19:13:17.073Z,14.92
2022-10-18T19:15:44.603Z,14.87
2022-10-18T19:18:12.062Z,14.87
2022-10-18T19:20:39.540Z,14.86
2022-10-18T19:23:07.019Z,14.82
2022-10-18T19:25:35.852Z,14.77
2022-10-18T19:28:03.351Z,14.66
2022-10-18T19:30:30.827Z,14.68
2022-10-18T19:33:04.061Z,14.65
2022-10-18T19:35:31.540Z,14.62
2022-10-18T19:37:59.023Z,14.60
2022-10-18T19:40:26.522Z,14.53
2022-10-18T19:42:55.285Z,14.50
2022-10-18T19:45:22.769Z,14.43
2022-10-18T19:47:50.252Z,14.32
2022-10-18T19:50:18.030Z,14.31
2022-10-18T19:52:45.497Z,14.26
2022-10-18T19:55:12.970Z,14.25
2022-10-18T19:57:40.416Z,14.25
2022-10-18T20:00:13.194Z,14.28
2022-10-18T20:02:42.464Z,14.29
2022-10-18T20:05:10.820Z,14.23
2022-10-18T20:07:41.082Z,14.22
2022-10-18T20:10:09.448Z,14.16
2022-10-18T20:12:36.927Z,14.17
2022-10-18T20:15:04.528Z,14.22
2022-10-18T20:17:33.652Z,14.19
2022-10-18T20:20:01.186Z,14.19
2022-10-18T20:22:28.651Z,14.14
2022-10-18T20:24:57.718Z,14.08
2022-10-18T20:27:25.259Z,14.03
2022-10-18T20:29:52.762Z,14.00
2022-10-18T20:32:20.224Z,13.96
2022-10-18T20:34:49.074Z,13.86
2022-10-18T20:37:19.460Z,13.86
2022-10-18T20:39:46.974Z,13.88
2022-10-18T20:42:14.416Z,13.85
2022-10-18T20:44:43.369Z,13.82
2022-10-18T20:47:11.029Z,13.84
2022-10-18T20:49:38.531Z,13.82
2022-10-18T20:52:07.321Z,13.82
2022-10-18T20:54:34.815Z,13.83
2022-10-18T20:57:02.252Z,13.82
2022-10-18T20:59:29.996Z,13.81
2022-10-18T21:01:57.479Z,13.80
2022-10-18T21:04:24.952Z,13.75
2022-10-18T21:06:52.436Z,13.74
2022-10-18T21:09:21.382Z,13.70
2022-10-18T21:11:50.927Z,13.72
2022-10-18T21:14:19.903Z,13.71
2022-10-18T21:16:48.210Z,13.73
2022-10-18T21:19:17.833Z,13.70
2022-10-18T21:21:47.208Z,13.76
2022-10-18T21:24:15.204Z,13.71
2022-10-18T21:26:44.594Z,13.70
2022-10-18T21:29:15.982Z,13.66
2022-10-18T21:31:46.318Z,13.68
2022-10-18T21:34:16.988Z,13.64
2022-10-18T21:36:45.845Z,13.67
2022-10-18T21:39:15.486Z,13.65
2022-10-18T21:41:44.908Z,13.58
2022-10-18T21:44:13.152Z,13.52
2022-10-18T21:46:42.855Z,13.45
2022-10-18T21:49:11.096Z,13.40
2022-10-18T21:51:39.303Z,13.37
2022-10-18T21:54:09.133Z,13.33
2022-10-18T21:56:36.691Z,13.30
2022-10-18T21:59:07.755Z,13.29
2022-10-18T22:01:36.911Z,13.29
2022-10-18T22:04:07.065Z,13.26
2022-10-18T22:06:36.489Z,13.25
2022-10-18T22:09:08.282Z,13.19
2022-10-18T22:11:39.612Z,13.23
2022-10-18T22:14:08.636Z,13.16
2022-10-18T22:16:36.161Z,13.14
2022-10-18T22:19:05.611Z,13.13
2022-10-18T22:21:34.045Z,13.17
2022-10-18T22:24:04.111Z,13.21
2022-10-18T22:26:34.025Z,13.21
2022-10-18T22:29:04.226Z,13.32
2022-10-18T22:31:35.507Z,13.31
2022-10-18T22:34:04.791Z,13.34
2022-10-18T22:36:33.058Z,13.36
2022-10-18T22:39:00.812Z,13.35
2022-10-18T22:41:28.312Z,13.38
2022-10-18T22:43:58.407Z,13.43
2022-10-18T22:46:28.940Z,13.50
2022-10-18T22:48:57.760Z,13.50
2022-10-18T22:51:25.376Z,13.48
2022-10-18T22:53:52.884Z,13.45
2022-10-18T22:56:22.386Z,13.44
2022-10-18T22:58:50.429Z,13.44
2022-10-18T23:01:19.709Z,13.40
2022-10-18T23:03:47.534Z,13.37
2022-10-18T23:06:22.415Z,13.35
2022-10-18T23:08:50.612Z,13.29
2022-10-18T23:11:19.064Z,13.22
2022-10-18T23:13:46.682Z,13.14
2022-10-18T23:16:14.881Z,13.12
2022-10-18T23:18:42.708Z,12.99
2022-10-18T23:21:13.380Z,12.96
2022-10-18T23:23:43.482Z,12.93
2022-10-18T23:26:13.524Z,12.83
2022-10-18T23:28:43.375Z,12.85
2022-10-18T23:31:13.454Z,12.84
2022-10-18T23:33:41.964Z,12.80
2022-10-18T23:36:09.943Z,12.82
2022-10-18T23:38:39.093Z,12.76
2022-10-18T23:41:09.571Z,12.76
2022-10-18T23:43:37.466Z,12.72
2022-10-18T23:46:05.539Z,12.75
2022-10-18T23:48:34.085Z,12.67
2022-10-18T23:51:01.776Z,12.64
2022-10-18T23:53:29.672Z,12.64
2022-10-18T23:55:59.199Z,12.56
2022-10-18T23:58:29.513Z,12.51
